Time;durP1;ratioP1;P1;durP2;ratioP2;P2;SDS_P1;SDS_P2;PMS_P1;PMS_P2;Temp;Humidity;BMP_temperature;BMP_pressure;BME280_temperature;BME280_humidity;BME280_pressure;Samples;Min_cycle;Max_cycle;Signal;HPM_P1;HPM_P2
2021/05/08 00:01:51;;;;;;;11.38;5.10;;;;;;;4.12;71.31;96658.88;5073993;28;20123;-66
2021/05/08 00:04:18;;;;;;;7.05;4.45;;;;;;;4.07;71.24;96664.25;5072146;28;20687;-66
2021/05/08 00:06:45;;;;;;;6.85;4.35;;;;;;;4.00;71.37;96659.16;5071765;28;20039;-66
2021/05/08 00:09:11;;;;;;;9.32;4.97;;;;;;;4.01;71.51;96668.03;5072411;28;20052;-66
2021/05/08 00:11:37;;;;;;;9.43;4.72;;;;;;;4.00;71.77;96666.41;5073461;28;20590;-66
2021/05/08 00:14:04;;;;;;;7.78;4.68;;;;;;;4.08;72.06;96666.72;5072303;28;20488;-66
2021/05/08 00:16:30;;;;;;;7.70;4.90;;;;;;;4.12;71.64;96666.97;5072912;28;20174;-66
2021/05/08 00:18:56;;;;;;;7.88;4.97;;;;;;;4.14;71.87;96667.53;5072984;28;20054;-66
2021/05/08 00:21:23;;;;;;;7.28;4.32;;;;;;;4.12;71.94;96672.34;5072145;28;20101;-66
2021/05/08 00:23:49;;;;;;;8.48;4.72;;;;;;;4.08;71.86;96663.22;5073393;28;20075;-66
2021/05/08 00:26:15;;;;;;;6.68;4.40;;;;;;;4.03;71.88;96663.19;5071587;28;20045;-66
2021/05/08 00:28:42;;;;;;;8.52;4.55;;;;;;;4.01;71.56;96665.34;5073548;28;20514;-66
2021/05/08 00:31:08;;;;;;;10.15;4.45;;;;;;;3.95;71.67;96666.41;5071684;28;20048;-67
2021/05/08 00:33:34;;;;;;;7.10;4.72;;;;;;;3.90;71.99;96670.72;5073257;28;20044;-66
2021/05/08 00:36:00;;;;;;;11.15;5.32;;;;;;;3.89;72.12;96662.91;5072299;28;20052;-66
2021/05/08 00:38:26;;;;;;;7.18;4.10;;;;;;;3.89;72.18;96663.72;5071930;28;20119;-66
2021/05/08 00:40:52;;;;;;;7.00;4.05;;;;;;;3.87;72.10;96660.50;5072528;28;20040;-66
2021/05/08 00:43:18;;;;;;;7.30;4.25;;;;;;;3.86;72.02;96664.28;5071863;28;20087;-66
2021/05/08 00:45:44;;;;;;;8.18;4.30;;;;;;;3.82;72.27;96657.78;5071617;28;20135;-66
2021/05/08 00:48:12;;;;;;;7.85;4.53;;;;;;;3.81;72.45;96661.56;5071329;28;20265;-68
2021/05/08 00:50:39;;;;;;;7.60;4.55;;;;;;;3.81;72.24;96661.56;5072849;28;20055;-68
2021/05/08 00:53:08;;;;;;;8.40;4.97;;;;;;;3.84;72.37;96662.91;5071322;28;20049;-68
2021/05/08 00:55:35;;;;;;;5.85;4.15;;;;;;;3.87;72.49;96655.09;5073048;28;20534;-68
2021/05/08 00:58:03;;;;;;;7.80;4.28;;;;;;;3.90;72.60;96654.56;5071497;28;20044;-69
2021/05/08 01:00:30;;;;;;;8.20;4.28;;;;;;;3.97;72.70;96654.31;5072552;28;20071;-68
2021/05/08 01:02:56;;;;;;;6.57;4.40;;;;;;;3.96;72.45;96657.25;5072085;28;20059;-65
2021/05/08 01:05:24;;;;;;;7.40;4.20;;;;;;;3.94;72.57;96652.13;5071488;28;20048;-66
2021/05/08 01:07:51;;;;;;;7.60;4.15;;;;;;;3.91;72.29;96649.97;5071938;28;20114;-65
2021/05/08 01:10:17;;;;;;;8.50;4.85;;;;;;;3.88;72.30;96654.03;5071352;28;20414;-66
2021/05/08 01:12:44;;;;;;;8.05;4.30;;;;;;;3.86;72.56;96653.50;5072580;28;20049;-66
2021/05/08 01:15:12;;;;;;;8.25;4.95;;;;;;;3.81;72.63;96649.94;5070874;28;20041;-66
2021/05/08 01:17:38;;;;;;;7.78;4.57;;;;;;;3.75;72.82;96653.72;5072664;28;20510;-66
2021/05/08 01:20:05;;;;;;;6.85;4.47;;;;;;;3.68;72.33;96654.00;5070871;28;20055;-66
2021/05/08 01:22:33;;;;;;;6.90;4.68;;;;;;;3.60;72.70;96649.94;5072252;28;20036;-66
2021/05/08 01:24:59;;;;;;;6.85;4.80;;;;;;;3.59;72.97;96652.88;5071485;28;20047;-66
2021/05/08 01:27:25;;;;;;;8.30;4.90;;;;;;;3.61;73.46;96656.94;5071450;28;20040;-68
2021/05/08 01:29:51;;;;;;;10.38;4.90;;;;;;;3.62;73.68;96658.56;5071712;28;20116;-66
2021/05/08 01:32:17;;;;;;;7.10;4.38;;;;;;;3.63;73.28;96653.97;5070960;28;20129;-66
2021/05/08 01:34:43;;;;;;;8.90;4.75;;;;;;;3.54;73.20;96647.47;5072000;28;20044;-66
2021/05/08 01:37:09;;;;;;;8.02;4.70;;;;;;;3.49;72.89;96652.84;5070124;28;20045;-66
2021/05/08 01:39:36;;;;;;;9.35;4.82;;;;;;;3.46;73.12;96648.81;5072202;28;20040;-66
2021/05/08 01:42:02;;;;;;;7.15;4.40;;;;;;;3.42;73.26;96652.31;5070492;28;20037;-67
2021/05/08 01:44:28;;;;;;;7.15;4.20;;;;;;;3.35;73.27;96653.38;5072110;28;20041;-66
2021/05/08 01:57:00;;;;;;;8.25;4.78;;;;;;;3.16;73.50;96648.72;5051219;28;20094;-66
2021/05/08 01:59:26;;;;;;;8.77;5.53;;;;;;;3.13;73.91;96652.72;5058446;28;20079;-66
2021/05/08 02:01:52;;;;;;;7.97;4.70;;;;;;;3.09;73.93;96649.78;5071731;28;20055;-66
2021/05/08 02:04:18;;;;;;;8.63;4.85;;;;;;;3.04;74.02;96651.63;5070389;28;20044;-66
2021/05/08 02:06:49;;;;;;;7.65;4.85;;;;;;;3.03;74.06;96647.34;5071314;28;20040;-66
2021/05/08 02:09:15;;;;;;;6.95;4.32;;;;;;;3.00;74.04;96656.72;5069573;28;20066;-66
2021/05/08 02:11:41;;;;;;;11.07;4.93;;;;;;;2.98;74.12;96658.06;5071285;28;20051;-66
2021/05/08 02:14:08;;;;;;;8.60;4.78;;;;;;;2.94;74.17;96656.97;5070182;28;20566;-66
2021/05/08 02:16:34;;;;;;;8.77;5.07;;;;;;;2.94;74.30;96651.59;5070924;28;20048;-66
2021/05/08 02:19:00;;;;;;;6.35;4.43;;;;;;;2.98;74.32;96655.38;5071142;28;20098;-66
2021/05/08 02:21:26;;;;;;;6.30;4.25;;;;;;;2.94;74.14;96651.59;5070012;28;20044;-66
2021/05/08 02:23:52;;;;;;;7.68;4.40;;;;;;;2.90;74.09;96648.59;5071429;28;20045;-66
2021/05/08 02:26:18;;;;;;;9.30;4.10;;;;;;;2.86;74.34;96650.19;5069666;28;20302;-66
2021/05/08 02:28:44;;;;;;;9.88;4.35;;;;;;;2.88;74.65;96643.50;5070824;28;20168;-66
2021/05/08 02:31:11;;;;;;;10.63;4.70;;;;;;;2.91;74.60;96644.03;5069510;28;20052;-66
2021/05/08 02:33:37;;;;;;;7.30;4.30;;;;;;;2.97;75.05;96653.75;5070782;28;20458;-66
2021/05/08 02:36:04;;;;;;;15.98;5.07;;;;;;;3.01;75.18;96652.16;5069666;28;20045;-66
2021/05/08 02:38:30;;;;;;;7.10;4.47;;;;;;;3.02;74.94;96653.75;5070120;28;20048;-66
2021/05/08 02:40:56;;;;;;;7.03;4.85;;;;;;;3.01;74.40;96654.84;5070348;28;20449;-66
2021/05/08 02:43:22;;;;;;;10.15;5.10;;;;;;;3.01;74.47;96642.19;5069615;28;20059;-66
2021/05/08 02:45:47;;;;;;;11.25;5.05;;;;;;;3.04;74.35;96646.25;5070791;28;20083;-66
2021/05/08 02:48:14;;;;;;;10.45;4.75;;;;;;;3.01;74.03;96641.38;5069162;28;20072;-66
2021/05/08 02:50:40;;;;;;;8.88;5.05;;;;;;;2.99;74.17;96643.53;5070890;28;20782;-66
2021/05/08 02:53:06;;;;;;;10.18;4.82;;;;;;;2.96;74.18;96647.56;5069141;28;20044;-67
2021/05/08 02:55:32;;;;;;;7.43;4.70;;;;;;;2.97;74.37;96637.59;5070986;28;20108;-66
2021/05/08 02:58:01;;;;;;;7.88;5.00;;;;;;;2.99;74.50;96632.78;5069416;28;20060;-66
2021/05/08 03:00:28;;;;;;;6.82;4.10;;;;;;;3.00;74.45;96629.00;5070214;28;20049;-66
2021/05/08 03:02:54;;;;;;;9.93;4.50;;;;;;;3.05;74.64;96631.72;5069863;28;20052;-66
2021/05/08 03:05:21;;;;;;;7.28;4.00;;;;;;;3.07;74.88;96629.56;5069844;28;20057;-66
2021/05/08 03:07:47;;;;;;;7.93;4.25;;;;;;;3.11;75.00;96630.66;5069152;28;20496;-66
2021/05/08 03:10:13;;;;;;;9.52;4.80;;;;;;;3.14;74.66;96624.78;5069476;28;20040;-66
2021/05/08 03:12:39;;;;;;;13.90;4.53;;;;;;;3.13;74.42;96620.44;5070631;28;20048;-66
2021/05/08 03:15:07;;;;;;;9.00;4.25;;;;;;;3.13;74.38;96625.81;5069025;28;20040;-66
2021/05/08 03:17:33;;;;;;;5.70;3.72;;;;;;;3.09;74.12;96622.06;5070781;28;20469;-66
2021/05/08 03:19:59;;;;;;;12.35;5.22;;;;;;;3.07;74.21;96616.13;5069509;28;20045;-66
2021/05/08 03:22:26;;;;;;;7.53;4.63;;;;;;;3.04;73.93;96624.72;5069823;28;20060;-66
2021/05/08 03:24:52;;;;;;;9.45;4.97;;;;;;;3.02;73.88;96616.09;5069587;28;20045;-66
2021/05/08 03:27:18;;;;;;;14.85;5.05;;;;;;;3.02;74.03;96610.72;5069497;28;20041;-67
2021/05/08 03:29:46;;;;;;;17.00;4.80;;;;;;;3.02;73.92;96616.91;5069801;28;20044;-66
2021/05/08 03:32:12;;;;;;;10.85;5.05;;;;;;;3.03;73.81;96615.06;5069292;28;20056;-66
2021/05/08 03:34:38;;;;;;;9.50;4.18;;;;;;;3.02;73.78;96613.41;5070038;28;20411;-66
2021/05/08 03:37:04;;;;;;;7.60;4.30;;;;;;;3.01;73.81;96611.78;5068268;28;20135;-66
2021/05/08 03:39:31;;;;;;;7.00;3.75;;;;;;;3.01;73.69;96609.91;5070452;28;20040;-66
2021/05/08 03:41:57;;;;;;;6.13;4.18;;;;;;;3.04;74.01;96613.97;5069204;28;20063;-66
2021/05/08 03:44:23;;;;;;;8.82;5.15;;;;;;;3.04;74.12;96608.59;5069901;28;20068;-66
2021/05/08 03:46:49;;;;;;;8.35;4.38;;;;;;;3.04;73.96;96603.22;5068605;28;20044;-66
2021/05/08 03:49:15;;;;;;;15.73;5.15;;;;;;;3.05;74.14;96616.38;5069368;28;20076;-66
2021/05/08 03:51:41;;;;;;;5.85;3.95;;;;;;;3.05;74.22;96611.00;5069459;28;20044;-66
2021/05/08 03:54:07;;;;;;;10.80;5.13;;;;;;;3.04;74.21;96614.78;5069017;28;20056;-66
2021/05/08 03:56:35;;;;;;;9.23;4.30;;;;;;;3.01;73.92;96617.19;5069770;28;20078;-66
2021/05/08 03:59:01;;;;;;;7.82;4.60;;;;;;;2.98;73.86;96610.44;5068609;28;20044;-67
2021/05/08 04:01:27;;;;;;;14.50;4.97;;;;;;;2.99;74.31;96614.75;5069166;28;20044;-66
2021/05/08 04:03:54;;;;;;;31.85;6.30;;;;;;;2.98;74.26;96609.66;5068399;28;20036;-66
2021/05/08 04:06:20;;;;;;;12.48;5.20;;;;;;;2.97;74.11;96610.69;5068301;28;20052;-66
2021/05/08 04:08:47;;;;;;;9.13;4.38;;;;;;;2.94;73.99;96613.94;5068583;28;20108;-66
2021/05/08 04:11:13;;;;;;;6.63;4.10;;;;;;;2.92;74.11;96605.28;5069694;28;20048;-68
2021/05/08 04:13:40;;;;;;;7.30;4.55;;;;;;;2.90;74.22;96612.81;5069094;28;20044;-68
2021/05/08 04:16:06;;;;;;;13.27;5.10;;;;;;;2.89;74.25;96612.03;5069107;28;20048;-68
2021/05/08 04:18:32;;;;;;;7.88;4.50;;;;;;;2.87;74.50;96614.97;5069391;28;20051;-68
2021/05/08 04:20:58;;;;;;;7.93;4.57;;;;;;;2.87;74.72;96614.16;5073054;28;20041;-68
2021/05/08 04:23:24;;;;;;;7.25;4.50;;;;;;;2.87;74.69;96619.53;5072854;28;20067;-68
2021/05/08 04:25:50;;;;;;;6.35;4.22;;;;;;;2.90;74.85;96621.72;5072719;28;20722;-68
2021/05/08 04:28:16;;;;;;;7.05;4.25;;;;;;;2.94;74.90;96632.75;5072399;28;20094;-68
2021/05/08 04:30:44;;;;;;;9.27;4.20;;;;;;;2.99;75.01;96622.81;5071475;28;20043;-68
2021/05/08 04:33:10;;;;;;;7.30;4.78;;;;;;;3.02;75.06;96626.84;5072977;28;20049;-68
2021/05/08 04:35:36;;;;;;;7.57;4.82;;;;;;;3.05;74.82;96634.41;5072108;28;20064;-68
2021/05/08 04:38:03;;;;;;;9.80;5.20;;;;;;;3.08;74.83;96628.50;5072191;28;20048;-68
2021/05/08 04:40:29;;;;;;;7.65;4.40;;;;;;;3.13;74.94;96633.91;5072609;28;20040;-68
2021/05/08 04:42:55;;;;;;;11.25;4.82;;;;;;;3.19;74.98;96635.56;5072634;28;20511;-68
2021/05/08 04:45:24;;;;;;;9.50;5.43;;;;;;;3.25;75.07;96634.50;5072247;28;20044;-68
2021/05/08 04:47:52;;;;;;;8.93;5.45;;;;;;;3.34;75.05;96629.38;5072046;28;20045;-68
2021/05/08 04:50:18;;;;;;;9.50;5.32;;;;;;;3.42;75.31;96628.88;5072554;28;20044;-68
2021/05/08 04:52:44;;;;;;;7.20;5.00;;;;;;;3.49;75.30;96625.94;5071768;28;20040;-68
2021/05/08 04:55:11;;;;;;;8.43;5.25;;;;;;;3.56;75.55;96632.69;5072775;28;20411;-66
2021/05/08 04:57:38;;;;;;;7.10;5.00;;;;;;;3.63;75.47;96632.44;5072070;28;20308;-66
2021/05/08 05:00:06;;;;;;;11.50;5.88;;;;;;;3.69;75.47;96620.59;5072388;28;20044;-66
2021/05/08 05:02:32;;;;;;;9.65;5.30;;;;;;;3.76;75.58;96623.00;5071852;28;20376;-66
2021/05/08 05:04:59;;;;;;;18.05;6.50;;;;;;;3.82;75.51;96624.66;5072254;28;20491;-66
2021/05/08 05:07:25;;;;;;;11.95;5.07;;;;;;;3.88;75.51;96629.78;5071069;28;20106;-66
2021/05/08 05:09:51;;;;;;;8.05;5.05;;;;;;;3.97;74.98;96621.13;5072061;28;20458;-66
2021/05/08 05:12:17;;;;;;;9.10;5.05;;;;;;;4.06;74.07;96624.91;5071894;28;20048;-66
2021/05/08 05:14:43;;;;;;;7.00;4.90;;;;;;;4.14;74.03;96632.47;5071519;28;20036;-66
2021/05/08 05:17:09;;;;;;;11.68;5.85;;;;;;;4.21;73.63;96638.41;5072087;28;20098;-66
2021/05/08 05:19:35;;;;;;;16.40;5.82;;;;;;;4.27;73.86;96633.81;5072592;28;20068;-66
2021/05/08 05:22:02;;;;;;;11.45;6.22;;;;;;;4.34;73.88;96637.88;5072415;28;20049;-68
2021/05/08 05:24:28;;;;;;;9.00;5.63;;;;;;;4.42;73.28;96634.59;5071406;28;20044;-66
2021/05/08 05:26:54;;;;;;;17.65;5.93;;;;;;;4.51;73.45;96636.75;5072770;28;20502;-66
2021/05/08 05:29:20;;;;;;;17.67;5.80;;;;;;;4.58;73.32;96638.09;5071838;28;20080;-66
2021/05/08 05:31:47;;;;;;;15.27;5.75;;;;;;;4.66;73.14;96639.44;5071242;28;20505;-66
2021/05/08 05:34:13;;;;;;;8.55;5.22;;;;;;;4.73;72.60;96639.94;5070831;28;20510;-65
2021/05/08 05:36:39;;;;;;;7.63;4.80;;;;;;;4.78;72.34;96637.25;5070734;28;20044;-66
2021/05/08 05:39:07;;;;;;;9.55;5.07;;;;;;;4.87;72.67;96646.41;5071459;28;20079;-66
2021/05/08 05:41:33;;;;;;;10.05;5.65;;;;;;;4.97;72.76;96640.97;5071313;28;20044;-66
2021/05/08 05:44:00;;;;;;;10.27;5.55;;;;;;;5.07;72.03;96647.44;5072137;28;20457;-66
2021/05/08 05:46:26;;;;;;;9.95;5.57;;;;;;;5.13;71.72;96649.81;5070693;28;20536;-66
2021/05/08 05:48:52;;;;;;;7.90;4.88;;;;;;;5.19;71.25;96637.13;5071793;28;20040;-66
2021/05/08 05:51:18;;;;;;;9.23;5.85;;;;;;;5.28;71.45;96637.34;5070391;28;20051;-66
2021/05/08 05:53:44;;;;;;;9.13;5.50;;;;;;;5.33;70.53;96638.13;5071477;28;20047;-66
2021/05/08 05:56:11;;;;;;;9.82;5.05;;;;;;;5.41;70.44;96645.63;5070853;28;20443;-66
2021/05/08 05:58:37;;;;;;;10.60;6.47;;;;;;;5.47;69.99;96638.31;5070598;28;20055;-70
2021/05/08 06:01:03;;;;;;;7.50;5.13;;;;;;;5.49;70.64;96631.56;5070453;28;20049;-71
2021/05/08 06:03:29;;;;;;;9.07;5.88;;;;;;;5.61;70.84;96638.53;5068350;28;20049;-71
2021/05/08 06:05:55;;;;;;;10.00;5.97;;;;;;;5.68;70.74;96639.00;5068874;28;20101;-72
2021/05/08 06:08:21;;;;;;;19.67;6.50;;;;;;;5.81;71.12;96643.81;5067385;28;20049;-71
2021/05/08 06:10:47;;;;;;;8.80;5.13;;;;;;;5.93;71.04;96640.78;5068998;28;20156;-71
2021/05/08 06:13:14;;;;;;;9.40;4.95;;;;;;;6.04;71.01;96630.69;5067621;28;20091;-71
2021/05/08 06:15:40;;;;;;;6.90;4.68;;;;;;;6.09;70.40;96628.75;5068906;28;20052;-71
2021/05/08 06:18:06;;;;;;;9.52;5.28;;;;;;;6.20;69.93;96634.91;5068266;28;20473;-70
2021/05/08 06:20:32;;;;;;;9.20;4.85;;;;;;;6.31;70.08;96625.59;5068558;28;20048;-70
2021/05/08 06:22:58;;;;;;;8.13;4.72;;;;;;;6.42;70.01;96621.75;5068086;28;20052;-69
2021/05/08 06:25:24;;;;;;;8.30;4.65;;;;;;;6.53;70.07;96617.03;5067332;28;20044;-71
2021/05/08 06:27:51;;;;;;;7.13;4.78;;;;;;;6.66;69.64;96620.97;5066620;28;20044;-70
2021/05/08 06:30:18;;;;;;;6.97;4.82;;;;;;;6.77;69.53;96611.66;5048289;28;20071;-70
2021/05/08 06:32:44;;;;;;;6.18;4.45;;;;;;;6.84;68.68;96616.72;5067859;28;20518;-70
2021/05/08 06:35:10;;;;;;;6.40;4.25;;;;;;;6.99;68.89;96617.34;5066255;28;20048;-69
2021/05/08 06:37:36;;;;;;;8.23;4.82;;;;;;;7.10;68.92;96617.22;5067129;28;20462;-70
2021/05/08 06:40:03;;;;;;;7.18;4.65;;;;;;;7.24;68.89;96615.44;5067066;28;20071;-70
2021/05/08 06:42:29;;;;;;;8.68;4.20;;;;;;;7.35;69.17;96613.41;5067171;28;20415;-73
2021/05/08 06:44:55;;;;;;;7.28;4.15;;;;;;;7.45;68.13;96613.28;5067215;28;20056;-71
2021/05/08 06:47:22;;;;;;;5.18;3.70;;;;;;;7.55;68.58;96616.66;5067222;28;20667;-69
2021/05/08 06:49:48;;;;;;;4.45;3.00;;;;;;;7.72;67.91;96612.63;5067376;28;20423;-70
2021/05/08 06:52:14;;;;;;;6.95;3.70;;;;;;;7.91;66.31;96612.63;5066951;28;20052;-71
2021/05/08 06:54:40;;;;;;;5.60;3.30;;;;;;;8.10;65.30;96611.50;5067944;28;20071;-71
2021/05/08 06:57:06;;;;;;;3.35;2.50;;;;;;;8.26;64.13;96614.78;5066938;28;20761;-71
2021/05/08 06:59:32;;;;;;;3.90;2.55;;;;;;;8.37;63.02;96610.03;5067699;28;20048;-71
2021/05/08 07:01:58;;;;;;;5.28;2.72;;;;;;;8.47;62.43;96615.28;5067130;28;20062;-71
2021/05/08 07:04:25;;;;;;;7.70;4.30;;;;;;;8.58;63.27;96615.91;5067499;28;20482;-71
2021/05/08 07:06:51;;;;;;;6.93;3.45;;;;;;;8.69;61.04;96613.81;5066983;28;20063;-71
2021/05/08 07:09:17;;;;;;;8.23;5.25;;;;;;;8.83;60.35;96612.72;5067958;28;20068;-71
2021/05/08 07:11:43;;;;;;;7.05;4.35;;;;;;;8.97;60.53;96606.50;5067652;28;20150;-71
2021/05/08 07:14:09;;;;;;;4.53;2.78;;;;;;;9.09;59.10;96609.53;5067286;28;20443;-71
2021/05/08 07:16:35;;;;;;;7.05;2.60;;;;;;;9.23;58.03;96610.31;5067954;28;20054;-71
2021/05/08 07:19:01;;;;;;;5.15;2.50;;;;;;;9.34;58.16;96606.31;5067289;28;20064;-71
2021/05/08 07:21:28;;;;;;;6.30;2.75;;;;;;;9.43;57.29;96609.09;5068242;28;20127;-71
2021/05/08 07:23:54;;;;;;;5.65;2.90;;;;;;;9.56;57.77;96600.13;5067177;28;20044;-71
2021/05/08 07:26:20;;;;;;;3.25;1.95;;;;;;;9.64;56.38;96609.47;5067530;28;20157;-71
2021/05/08 07:28:46;;;;;;;4.43;2.40;;;;;;;9.78;57.89;96604.78;5067198;28;20492;-71
2021/05/08 07:31:12;;;;;;;4.72;2.72;;;;;;;9.91;57.58;96594.97;5066496;28;20053;-72
2021/05/08 07:33:39;;;;;;;3.75;2.58;;;;;;;10.08;56.51;96586.16;5067085;28;20051;-71
2021/05/08 07:36:06;;;;;;;4.32;3.00;;;;;;;10.27;56.33;96591.44;5067159;28;20048;-71
2021/05/08 07:38:32;;;;;;;6.18;2.40;;;;;;;10.42;54.77;96596.50;5065311;28;20052;-71
2021/05/08 07:40:58;;;;;;;4.30;2.40;;;;;;;10.61;52.65;96583.50;5049058;28;20048;-71
2021/05/08 07:43:24;;;;;;;4.25;2.30;;;;;;;10.84;54.20;96576.06;5066844;28;20107;-70
2021/05/08 07:45:50;;;;;;;18.92;4.25;;;;;;;11.05;54.12;96575.50;5066745;28;20041;-71
2021/05/08 07:48:17;;;;;;;11.77;3.67;;;;;;;11.29;52.11;96569.66;5066918;28;20049;-70
2021/05/08 07:50:43;;;;;;;3.97;2.80;;;;;;;11.84;54.09;96569.91;5066230;28;20056;-71
2021/05/08 07:53:09;;;;;;;7.90;2.80;;;;;;;13.07;52.29;96569.34;5067194;28;20059;-71
2021/05/08 07:55:36;;;;;;;5.22;2.65;;;;;;;14.34;48.14;96563.66;5069623;28;20407;-70
2021/05/08 07:58:04;;;;;;;6.25;2.80;;;;;;;15.46;44.41;96566.25;5071223;28;20423;-71
2021/05/08 08:00:30;;;;;;;7.35;2.95;;;;;;;16.41;44.21;96564.78;5070184;28;20058;-71
2021/05/08 08:02:56;;;;;;;6.05;3.35;;;;;;;17.08;41.45;96574.06;5070802;28;20445;-72
2021/05/08 08:05:22;;;;;;;4.50;2.33;;;;;;;18.09;39.56;96574.44;5070313;28;20079;-71
2021/05/08 08:07:48;;;;;;;4.32;2.92;;;;;;;18.56;33.73;96576.19;5061678;28;20752;-71
2021/05/08 08:10:14;;;;;;;5.60;2.53;;;;;;;19.02;32.12;96564.09;5070443;28;20048;-71
2021/05/08 08:12:41;;;;;;;5.22;2.72;;;;;;;19.36;35.08;96572.53;5070630;28;20451;-71
2021/05/08 08:15:09;;;;;;;3.85;2.53;;;;;;;19.71;30.38;96558.50;5070601;28;20055;-70
2021/05/08 08:17:35;;;;;;;9.27;3.95;;;;;;;20.01;31.85;96574.34;5069983;28;20101;-71
2021/05/08 08:20:02;;;;;;;10.23;3.55;;;;;;;20.22;31.13;96576.59;5070584;28;20057;-71
2021/05/08 08:22:29;;;;;;;4.68;2.45;;;;;;;20.30;29.65;96561.66;5069768;28;20053;-71
2021/05/08 08:24:56;;;;;;;6.47;2.50;;;;;;;20.58;30.62;96567.59;5070449;28;20060;-71
2021/05/08 08:27:22;;;;;;;5.60;2.90;;;;;;;20.85;28.47;96576.56;5069581;28;20048;-70
2021/05/08 08:29:49;;;;;;;4.85;3.38;;;;;;;21.20;28.13;96574.56;5070005;28;20056;-70
2021/05/08 08:32:15;;;;;;;4.32;2.83;;;;;;;21.38;28.89;96575.53;5050815;28;20113;-70
2021/05/08 08:34:42;;;;;;;8.15;3.65;;;;;;;21.85;28.95;96566.38;5069108;28;20056;-70
2021/05/08 08:37:08;;;;;;;10.38;3.28;;;;;;;22.29;32.01;96567.41;5069180;28;20526;-70
2021/05/08 08:39:35;;;;;;;18.58;4.60;;;;;;;22.44;27.86;96569.06;5069051;28;20044;-70
2021/05/08 08:42:02;;;;;;;6.85;2.72;;;;;;;22.43;25.43;96570.25;5070273;28;20738;-70
2021/05/08 08:44:28;;;;;;;19.65;3.58;;;;;;;22.44;25.84;96569.06;5069163;28;20555;-70
2021/05/08 08:46:55;;;;;;;6.32;2.70;;;;;;;22.78;25.49;96568.81;5069960;28;20068;-70
2021/05/08 08:49:23;;;;;;;5.07;2.47;;;;;;;22.80;26.42;96563.66;5068455;28;20063;-70
2021/05/08 08:51:49;;;;;;;26.67;6.25;;;;;;;22.91;26.92;96561.72;5068719;28;20056;-69
2021/05/08 08:54:16;;;;;;;14.52;3.50;;;;;;;23.06;25.16;96566.09;5068892;28;20045;-71
2021/05/08 08:56:45;;;;;;;27.50;5.32;;;;;;;23.44;27.44;96561.00;5069310;28;20044;-71
2021/05/08 08:59:16;;;;;;;4.57;3.20;;;;;;;23.39;24.09;96550.28;5068559;28;20079;-71
2021/05/08 09:01:43;;;;;;;6.78;3.28;;;;;;;23.49;24.57;96552.28;5068847;28;20049;-71
2021/05/08 09:04:11;;;;;;;13.95;3.90;;;;;;;23.77;26.03;96550.69;5070058;28;20048;-71
2021/05/08 09:06:39;;;;;;;8.20;3.17;;;;;;;23.89;25.28;96555.81;5067272;28;20067;-71
2021/05/08 09:09:05;;;;;;;4.32;2.80;;;;;;;23.94;25.57;96539.50;5069460;28;20121;-71
2021/05/08 09:11:31;;;;;;;6.65;2.40;;;;;;;23.97;24.06;96540.72;5068944;28;20044;-71
2021/05/08 09:14:18;;;;;;;3.63;2.53;;;;;;;23.86;21.37;96539.94;5069463;28;20048;-71
2021/05/08 09:17:09;;;;;;;16.13;3.20;;;;;;;23.61;24.21;96551.06;5068986;28;20086;-71
2021/05/08 09:19:38;;;;;;;24.88;4.32;;;;;;;23.35;24.15;96538.38;5068536;28;20037;-71
2021/05/08 09:22:27;;;;;;;4.53;2.03;;;;;;;23.08;22.56;96547.09;5069657;28;20051;-71
2021/05/08 09:24:55;;;;;;;11.80;3.30;;;;;;;21.74;23.08;96537.00;5069023;28;20641;-71
2021/05/08 09:27:35;;;;;;;27.33;3.70;;;;;;;21.00;22.97;96538.75;5068930;28;20060;-71
2021/05/08 09:30:08;;;;;;;8.88;2.20;;;;;;;19.90;24.16;96532.75;5068671;28;20048;-70
2021/05/08 09:32:39;;;;;;;2.78;1.60;;;;;;;18.70;26.16;96535.13;5068796;28;20055;-70
2021/05/08 09:35:09;;;;;;;21.33;3.45;;;;;;;18.59;34.76;96542.38;5068806;28;20089;-71
2021/05/08 09:37:36;;;;;;;25.60;3.90;;;;;;;18.55;29.04;96536.00;5067934;28;20044;-70
2021/05/08 09:40:20;;;;;;;17.30;2.45;;;;;;;17.90;30.17;96528.38;5069074;28;20052;-70
2021/05/08 09:42:47;;;;;;;54.58;4.70;;;;;;;17.83;31.35;96536.50;5068051;28;20041;-71
2021/05/08 09:45:15;;;;;;;21.45;3.42;;;;;;;17.54;30.79;96535.03;5068505;28;20499;-73
2021/05/08 09:47:42;;;;;;;26.67;3.70;;;;;;;17.26;31.51;96532.41;5068332;28;20438;-72
2021/05/08 09:50:10;;;;;;;33.00;3.40;;;;;;;17.26;32.52;96533.22;5067700;28;20491;-72
2021/05/08 09:52:48;;;;;;;10.90;2.90;;;;;;;17.19;32.17;96533.06;5069055;28;20075;-72
2021/05/08 09:55:15;;;;;;;18.75;3.47;;;;;;;17.22;34.07;96533.13;5067782;28;20064;-72
2021/05/08 09:57:54;;;;;;;15.00;3.35;;;;;;;17.25;31.41;96531.63;5068905;28;20052;-73
2021/05/08 10:00:38;;;;;;;11.18;2.42;;;;;;;16.95;31.49;96529.31;5067670;28;20445;-72
2021/05/08 10:03:09;;;;;;;;;;;;;;;16.82;31.68;96527.81;5068673;28;20044;-72
2021/05/08 10:05:37;;;;;;;26.95;3.55;;;;;;;16.79;31.94;96525.75;5068994;28;19950;-72
2021/05/08 10:08:03;;;;;;;42.20;3.92;;;;;;;16.94;34.16;96518.69;5067129;28;20052;-72
2021/05/08 10:10:30;;;;;;;33.60;3.45;;;;;;;16.99;35.66;96512.13;5068178;28;20128;-72
2021/05/08 10:12:57;;;;;;;33.00;4.25;;;;;;;17.13;32.22;96520.72;5067899;28;20056;-72
2021/05/08 10:15:23;;;;;;;23.00;3.22;;;;;;;17.29;34.13;96513.25;5068496;28;20406;-70
2021/05/08 10:17:51;;;;;;;26.52;3.25;;;;;;;17.42;34.09;96511.97;5066826;28;20055;-72
2021/05/08 10:20:18;;;;;;;28.02;3.47;;;;;;;17.49;31.73;96505.84;5068004;28;20109;-72
2021/05/08 10:22:49;;;;;;;28.73;3.13;;;;;;;17.52;33.55;96507.84;5067662;28;20051;-73
2021/05/08 10:25:16;;;;;;;34.83;3.80;;;;;;;17.37;31.18;96497.69;5067804;28;20048;-72
2021/05/08 10:27:43;;;;;;;15.50;2.45;;;;;;;17.31;32.03;96493.63;5068121;28;20044;-73
2021/05/08 10:30:14;;;;;;;34.85;3.63;;;;;;;17.40;34.29;96492.25;5067094;28;20078;-72
2021/05/08 10:32:44;;;;;;;35.83;3.65;;;;;;;17.45;32.46;96492.00;5068174;28;20037;-72
2021/05/08 10:35:12;;;;;;;30.70;3.63;;;;;;;17.63;34.50;96497.06;5067006;28;20040;-73
2021/05/08 10:37:38;;;;;;;24.58;3.05;;;;;;;17.68;30.24;96497.59;5067991;28;20052;-72
2021/05/08 10:40:16;;;;;;;26.55;3.03;;;;;;;17.58;31.85;96492.66;5066920;28;20583;-73
2021/05/08 10:42:43;;;;;;;38.28;4.00;;;;;;;17.69;32.38;96479.09;5068285;28;20068;-73
2021/05/08 10:45:39;;;;;;;29.27;3.30;;;;;;;17.54;30.67;96480.78;5066616;28;20067;-73
2021/05/08 10:48:12;;;;;;;38.50;4.15;;;;;;;17.27;29.99;96479.75;4984678;28;20072;-73
2021/05/08 10:50:42;;;;;;;42.22;4.32;;;;;;;16.93;33.66;96478.56;5051384;28;20048;-72
2021/05/08 10:53:09;;;;;;;31.88;3.45;;;;;;;16.95;33.48;96474.31;5066301;28;20127;-72
2021/05/08 10:55:48;;;;;;;42.13;4.22;;;;;;;16.76;34.62;96477.00;5068078;28;20052;-72
2021/05/08 10:58:37;;;;;;;29.08;3.42;;;;;;;16.74;36.81;96476.53;5066136;28;20518;-72
2021/05/08 11:01:09;;;;;;;48.53;4.68;;;;;;;16.61;31.15;96480.50;5064119;28;20055;-72
2021/05/08 11:04:06;;;;;;;36.45;3.78;;;;;;;16.51;34.89;96475.53;5067362;28;20541;-72
2021/05/08 11:06:32;;;;;;;35.78;3.75;;;;;;;16.47;34.52;96474.63;5069242;28;20041;-73
2021/05/08 11:08:59;;;;;;;21.88;2.90;;;;;;;16.40;33.24;96473.28;5070813;28;20049;-72
2021/05/08 11:11:45;;;;;;;25.75;3.22;;;;;;;16.60;36.66;96478.88;5069253;28;20047;-72
2021/05/08 11:14:11;;;;;;;28.85;3.55;;;;;;;16.69;35.32;96474.81;5069858;28;20048;-73
2021/05/08 11:16:54;;;;;;;16.52;2.63;;;;;;;16.86;33.45;96465.47;5070301;28;20499;-72
2021/05/08 11:19:21;;;;;;;23.95;2.88;;;;;;;17.06;34.32;96462.75;5069767;28;20044;-73
2021/05/08 11:21:47;;;;;;;15.73;2.60;;;;;;;17.27;36.73;96456.94;5070707;28;20050;-73
2021/05/08 11:24:32;;;;;;;23.95;3.20;;;;;;;17.42;34.35;96462.41;5069562;28;20049;-73
2021/05/08 11:26:59;;;;;;;15.15;2.50;;;;;;;17.52;33.05;96457.50;5070813;28;20048;-72
2021/05/08 11:29:28;;;;;;;11.35;2.15;;;;;;;17.56;34.36;96448.16;5070819;28;20041;-72
2021/05/08 11:31:56;;;;;;;19.80;2.85;;;;;;;17.71;32.30;96438.25;5074750;28;20127;-73
2021/05/08 11:34:24;;;;;;;16.65;2.95;;;;;;;17.84;37.42;96436.97;5073308;28;20094;-71
2021/05/08 11:36:52;;;;;;;25.85;3.55;;;;;;;17.90;35.03;96432.75;5073522;28;20052;-71
2021/05/08 11:39:20;;;;;;;12.57;2.60;;;;;;;17.94;36.79;96433.63;5074087;28;20511;-71
2021/05/08 11:41:49;;;;;;;21.67;3.00;;;;;;;17.92;35.27;96427.69;5074041;28;20041;-71
2021/05/08 11:44:27;;;;;;;11.15;2.60;;;;;;;18.07;34.93;96423.25;5074381;28;20515;-71
2021/05/08 11:46:55;;;;;;;13.35;2.63;;;;;;;18.18;35.30;96428.97;5073436;28;20044;-71
2021/05/08 11:49:30;;;;;;;14.48;2.45;;;;;;;18.25;35.28;96423.59;5074177;28;20441;-71